Terminal Aerodrome Forecast
Issued by NWS New Orleans/Baton Rouge, LA

Home | Current Version | Previous Version | Text Only | Print | Product List | Glossary On
Versions: 1 2 3 4 5 6 7 8 9 10 11 12 13 14 15 16 17 18 19 20 21 22 23
000
FTUS44 KLIX 271748
TAFBTR
TAF
KBTR 271748Z 2718/2818 06013KT P6SM VCTS SCT010 BKN090CB OVC140
      TEMPO 2719/2722 4SM TSRA
     FM280000 09008KT 4SM -SHRA OVC015=

USA.gov is the U.S. government's official web portal to all federal, state and local government web resources and services.